createdAt,value
2018-11-12T00:00:48.504Z,1005.96
2018-11-12T00:01:48.477Z,1005.96
2018-11-12T00:02:48.462Z,1006.02
2018-11-12T00:03:48.444Z,1006.05
2018-11-12T00:04:48.427Z,1006.11
2018-11-12T00:05:48.408Z,1006.06
2018-11-12T00:06:48.389Z,1006.07
2018-11-12T00:07:48.374Z,1006.06
2018-11-12T00:08:48.358Z,1006.01
2018-11-12T00:09:48.338Z,1006.03
2018-11-12T00:10:48.326Z,1006.03
2018-11-12T00:11:48.304Z,1005.99
2018-11-12T00:12:48.286Z,1005.96
2018-11-12T00:13:48.266Z,1005.93
2018-11-12T00:14:48.251Z,1005.89
2018-11-12T00:15:48.245Z,1005.87
2018-11-12T00:16:48.223Z,1005.90
2018-11-12T00:17:48.203Z,1005.87
2018-11-12T00:18:48.183Z,1005.91
2018-11-12T00:19:48.166Z,1005.94
2018-11-12T00:20:48.146Z,1005.92
2018-11-12T00:21:48.139Z,1005.96
2018-11-12T00:22:48.120Z,1005.98
2018-11-12T00:23:48.100Z,1006.02
2018-11-12T00:24:48.084Z,1005.99
2018-11-12T00:25:48.060Z,1005.93
2018-11-12T00:26:48.044Z,1005.88
2018-11-12T00:27:48.026Z,1005.86
2018-11-12T00:28:48.008Z,1005.79
2018-11-12T00:29:47.990Z,1005.79
2018-11-12T00:30:47.976Z,1005.78
2018-11-12T00:31:47.957Z,1005.78
2018-11-12T00:32:47.939Z,1005.82
2018-11-12T00:33:47.931Z,1005.84
2018-11-12T00:34:47.909Z,1005.85
2018-11-12T00:35:47.890Z,1005.85
2018-11-12T00:36:47.871Z,1005.87
2018-11-12T00:37:47.864Z,1005.91
2018-11-12T00:38:47.850Z,1005.97
2018-11-12T00:39:47.819Z,1006.00
2018-11-12T00:40:47.805Z,1006.00
2018-11-12T00:41:47.787Z,1006.11
2018-11-12T00:42:47.771Z,1006.19
2018-11-12T00:43:47.752Z,1006.25
2018-11-12T00:44:47.736Z,1006.30
2018-11-12T00:45:47.719Z,1006.31
2018-11-12T00:46:47.703Z,1006.29
2018-11-12T00:47:47.692Z,1006.25
2018-11-12T00:48:47.666Z,1006.30
2018-11-12T00:49:47.659Z,1006.24
2018-11-12T00:50:47.648Z,1006.22
2018-11-12T00:51:47.617Z,1006.23
2018-11-12T00:52:47.598Z,1006.24
2018-11-12T00:53:47.584Z,1006.20
2018-11-12T00:54:47.565Z,1006.32
2018-11-12T00:55:47.552Z,1006.37
2018-11-12T00:56:47.536Z,1006.34
2018-11-12T00:57:47.514Z,1006.35
2018-11-12T00:58:47.495Z,1006.38
2018-11-12T00:59:47.483Z,1006.42
2018-11-12T01:00:47.465Z,1006.45
2018-11-12T01:01:47.449Z,1006.54
2018-11-12T01:02:47.437Z,1006.56
2018-11-12T01:03:47.413Z,1006.53
2018-11-12T01:04:47.393Z,1006.50
2018-11-12T01:05:47.377Z,1006.51
2018-11-12T01:06:47.355Z,1006.44
2018-11-12T01:07:47.339Z,1006.45
2018-11-12T01:08:47.332Z,1006.41
2018-11-12T01:09:47.306Z,1006.46
2018-11-12T01:10:47.287Z,1006.50
2018-11-12T01:11:47.276Z,1006.49
2018-11-12T01:12:47.252Z,1006.46
2018-11-12T01:13:47.236Z,1006.45
2018-11-12T01:14:47.223Z,1006.45
2018-11-12T01:15:47.207Z,1006.49
2018-11-12T01:16:47.193Z,1006.53
2018-11-12T01:17:47.169Z,1006.58
2018-11-12T01:18:47.150Z,1006.63
2018-11-12T01:19:47.135Z,1006.65
2018-11-12T01:20:47.116Z,1006.68
2018-11-12T01:21:47.098Z,1006.69
2018-11-12T01:22:47.083Z,1006.63
2018-11-12T01:23:47.063Z,1006.64
2018-11-12T01:24:47.051Z,1006.60
2018-11-12T01:25:47.030Z,1006.58
2018-11-12T01:26:47.017Z,1006.57
2018-11-12T01:27:46.993Z,1006.58
2018-11-12T01:28:46.982Z,1006.52
2018-11-12T01:29:46.962Z,1006.52
2018-11-12T01:30:46.946Z,1006.52
2018-11-12T01:31:46.923Z,1006.53
2018-11-12T01:32:46.907Z,1006.55
2018-11-12T01:33:46.890Z,1006.55
2018-11-12T01:34:46.873Z,1006.54
2018-11-12T01:35:46.852Z,1006.54
2018-11-12T01:36:46.841Z,1006.59
2018-11-12T01:37:46.821Z,1006.61
2018-11-12T01:38:46.803Z,1006.62
2018-11-12T01:39:46.785Z,1006.57
2018-11-12T01:40:46.768Z,1006.55
2018-11-12T01:41:46.759Z,1006.54
2018-11-12T01:42:46.735Z,1006.54
2018-11-12T01:43:46.718Z,1006.55
2018-11-12T01:44:46.699Z,1006.56
2018-11-12T01:45:46.682Z,1006.55
2018-11-12T01:46:46.666Z,1006.52
2018-11-12T01:47:46.643Z,1006.48
2018-11-12T01:48:46.628Z,1006.43
2018-11-12T01:49:46.607Z,1006.40
2018-11-12T01:50:46.591Z,1006.33
2018-11-12T01:51:46.575Z,1006.33
2018-11-12T01:52:46.558Z,1006.35
2018-11-12T01:53:46.542Z,1006.40
2018-11-12T01:54:46.523Z,1006.40
2018-11-12T01:55:46.509Z,1006.46
2018-11-12T01:56:46.487Z,1006.47
2018-11-12T01:57:46.474Z,1006.47
2018-11-12T01:58:46.453Z,1006.45
2018-11-12T01:59:46.438Z,1006.42
2018-11-12T02:00:46.421Z,1006.43
2018-11-12T02:01:46.473Z,1006.43
2018-11-12T02:02:46.384Z,1006.46
2018-11-12T02:03:46.368Z,1006.53
2018-11-12T02:04:46.464Z,1006.51
2018-11-12T02:05:46.332Z,1006.48
2018-11-12T02:06:46.314Z,1006.50
2018-11-12T02:07:46.293Z,1006.49
2018-11-12T02:08:46.341Z,1006.55
2018-11-12T02:09:46.259Z,1006.49
2018-11-12T02:10:46.256Z,1006.47
2018-11-12T02:11:46.230Z,1006.48
2018-11-12T02:12:46.212Z,1006.45
2018-11-12T02:13:46.191Z,1006.39
2018-11-12T02:14:46.211Z,1006.45
2018-11-12T02:15:46.156Z,1006.44
2018-11-12T02:16:46.138Z,1006.41
2018-11-12T02:17:46.125Z,1006.43
2018-11-12T02:18:46.103Z,1006.40
2018-11-12T02:19:46.088Z,1006.36
2018-11-12T02:20:46.066Z,1006.28
2018-11-12T02:21:46.051Z,1006.31
2018-11-12T02:22:46.041Z,1006.25
2018-11-12T02:23:46.024Z,1006.28
2018-11-12T02:24:45.997Z,1006.21
2018-11-12T02:25:45.979Z,1006.23
2018-11-12T02:26:45.963Z,1006.18
2018-11-12T02:27:45.960Z,1006.21
2018-11-12T02:28:45.981Z,1006.24
2018-11-12T02:29:45.917Z,1006.23
2018-11-12T02:30:45.891Z,1006.23
2018-11-12T02:31:45.873Z,1006.22
2018-11-12T02:32:45.857Z,1006.19
2018-11-12T02:33:46.155Z,1006.21
2018-11-12T02:34:45.859Z,1006.21
2018-11-12T02:35:45.804Z,1006.22
2018-11-12T02:36:45.788Z,1006.23
2018-11-12T02:37:45.768Z,1006.25
2018-11-12T02:38:45.748Z,1006.22
2018-11-12T02:39:45.732Z,1006.24
2018-11-12T02:40:45.714Z,1006.21
2018-11-12T02:41:45.696Z,1006.21
2018-11-12T02:42:45.681Z,1006.19
2018-11-12T02:43:45.659Z,1006.16
2018-11-12T02:44:45.650Z,1006.15
2018-11-12T02:45:45.626Z,1006.10
2018-11-12T02:46:45.609Z,1006.03
2018-11-12T02:47:45.590Z,1006.00
2018-11-12T02:48:45.575Z,1005.97
2018-11-12T02:49:45.553Z,1005.98
2018-11-12T02:50:45.536Z,1006.00
2018-11-12T02:51:45.518Z,1006.03
2018-11-12T02:52:45.498Z,1006.10
2018-11-12T02:53:45.488Z,1006.10
2018-11-12T02:54:45.465Z,1006.18
2018-11-12T02:55:45.447Z,1006.17
2018-11-12T02:56:45.434Z,1006.21
2018-11-12T02:57:45.414Z,1006.16
2018-11-12T02:58:45.397Z,1006.15
2018-11-12T02:59:45.380Z,1006.16
2018-11-12T03:00:45.363Z,1006.11
2018-11-12T03:01:45.343Z,1006.14
2018-11-12T03:02:45.324Z,1006.14
2018-11-12T03:03:45.305Z,1006.07
2018-11-12T03:04:45.305Z,1006.05
2018-11-12T03:05:45.278Z,1006.11
2018-11-12T03:06:45.254Z,1006.07
2018-11-12T03:07:45.399Z,1006.05
2018-11-12T03:08:45.221Z,1006.03
2018-11-12T03:09:45.205Z,1006.02
2018-11-12T03:10:45.187Z,1006.01
2018-11-12T03:11:45.170Z,1006.01
2018-11-12T03:12:45.152Z,1005.93
2018-11-12T03:13:45.136Z,1005.89
2018-11-12T03:14:45.115Z,1005.93
2018-11-12T03:15:45.099Z,1005.92
2018-11-12T03:16:45.084Z,1005.91
2018-11-12T03:17:45.065Z,1005.90
2018-11-12T03:18:45.046Z,1005.92
2018-11-12T03:19:45.027Z,1005.89
2018-11-12T03:20:45.021Z,1005.92
2018-11-12T03:21:44.994Z,1005.92
2018-11-12T03:22:44.992Z,1005.91
2018-11-12T03:23:44.960Z,1005.90
2018-11-12T03:24:44.939Z,1005.88
2018-11-12T03:25:44.923Z,1005.91
2018-11-12T03:26:44.906Z,1005.92
2018-11-12T03:27:44.979Z,1005.92
2018-11-12T03:28:44.869Z,1005.92
2018-11-12T03:29:44.850Z,1005.90
2018-11-12T03:30:44.836Z,1005.92
2018-11-12T03:31:44.819Z,1005.94
2018-11-12T03:32:44.801Z,1005.96
2018-11-12T03:33:44.787Z,1006.00
2018-11-12T03:34:44.792Z,1006.01
2018-11-12T03:35:44.750Z,1006.04
2018-11-12T03:36:44.732Z,1006.09
2018-11-12T03:37:44.722Z,1006.14
2018-11-12T03:38:44.697Z,1006.15
2018-11-12T03:39:44.704Z,1006.13
2018-11-12T03:40:44.663Z,1006.18
2018-11-12T03:41:44.652Z,1006.20
2018-11-12T03:42:44.626Z,1006.23
2018-11-12T03:43:44.606Z,1006.33
2018-11-12T03:44:44.590Z,1006.39
2018-11-12T03:45:44.578Z,1006.45
2018-11-12T03:46:44.555Z,1006.46
2018-11-12T03:47:44.546Z,1006.45
2018-11-12T03:48:44.520Z,1006.46
2018-11-12T03:49:44.506Z,1006.44
2018-11-12T03:50:44.484Z,1006.40
2018-11-12T03:51:44.465Z,1006.42
2018-11-12T03:52:44.455Z,1006.34
2018-11-12T03:53:44.430Z,1006.38
2018-11-12T03:54:44.419Z,1006.38
2018-11-12T03:55:44.400Z,1006.37
2018-11-12T03:56:44.377Z,1006.40
2018-11-12T03:57:44.366Z,1006.42
2018-11-12T03:58:44.343Z,1006.48
2018-11-12T03:59:44.324Z,1006.49
2018-11-12T04:00:44.309Z,1006.52
2018-11-12T04:01:44.292Z,1006.56
2018-11-12T04:02:44.273Z,1006.60
2018-11-12T04:03:44.260Z,1006.64
2018-11-12T04:04:44.239Z,1006.67
2018-11-12T04:05:44.225Z,1006.66
2018-11-12T04:06:44.208Z,1006.69
2018-11-12T04:07:44.185Z,1006.66
2018-11-12T04:08:44.172Z,1006.66
2018-11-12T04:09:44.150Z,1006.67
2018-11-12T04:10:44.135Z,1006.65
2018-11-12T04:11:44.116Z,1006.67
2018-11-12T04:12:44.105Z,1006.69
2018-11-12T04:13:44.081Z,1006.72
2018-11-12T04:14:44.067Z,1006.71
2018-11-12T04:15:44.047Z,1006.73
2018-11-12T04:16:44.032Z,1006.68
2018-11-12T04:17:44.012Z,1006.70
2018-11-12T04:18:43.996Z,1006.70
2018-11-12T04:19:43.979Z,1006.72
2018-11-12T04:20:43.960Z,1006.73
2018-11-12T04:21:43.943Z,1006.76
2018-11-12T04:22:43.933Z,1006.76
2018-11-12T04:23:43.911Z,1006.75
2018-11-12T04:24:43.893Z,1006.76
2018-11-12T04:25:43.878Z,1006.78
2018-11-12T04:26:43.857Z,1006.79
2018-11-12T04:27:43.836Z,1006.77
2018-11-12T04:28:43.823Z,1006.74
2018-11-12T04:29:43.807Z,1006.75
2018-11-12T04:30:43.788Z,1006.79
2018-11-12T04:31:43.771Z,1006.79
2018-11-12T04:32:43.756Z,1006.76
2018-11-12T04:33:43.735Z,1006.70
2018-11-12T04:34:43.721Z,1006.74
2018-11-12T04:35:43.704Z,1006.71
2018-11-12T04:36:43.684Z,1006.71
2018-11-12T04:37:43.668Z,1006.72
2018-11-12T04:38:43.657Z,1006.70
2018-11-12T04:39:43.633Z,1006.70
2018-11-12T04:40:43.616Z,1006.67
2018-11-12T04:41:43.597Z,1006.67
2018-11-12T04:42:43.583Z,1006.68
2018-11-12T04:43:43.574Z,1006.69
2018-11-12T04:44:43.553Z,1006.69
2018-11-12T04:45:43.591Z,1006.70
2018-11-12T04:46:43.519Z,1006.72
2018-11-12T04:47:43.494Z,1006.71
2018-11-12T04:48:43.478Z,1006.70
2018-11-12T04:49:43.463Z,1006.65
2018-11-12T04:50:43.455Z,1006.59
2018-11-12T04:51:43.429Z,1006.53
2018-11-12T04:52:43.411Z,1006.53
2018-11-12T04:53:43.470Z,1006.54
2018-11-12T04:54:43.378Z,1006.57
2018-11-12T04:55:43.364Z,1006.54
2018-11-12T04:56:43.347Z,1006.58
2018-11-12T04:57:43.326Z,1006.57
2018-11-12T04:58:43.313Z,1006.57
2018-11-12T04:59:43.294Z,1006.56
2018-11-12T05:00:43.277Z,1006.60
2018-11-12T05:01:43.292Z,1006.60
2018-11-12T05:02:43.242Z,1006.55
2018-11-12T05:03:43.223Z,1006.56
2018-11-12T05:04:43.207Z,1006.48
2018-11-12T05:05:43.188Z,1006.47
2018-11-12T05:06:43.173Z,1006.44
2018-11-12T05:07:43.242Z,1006.42
2018-11-12T05:08:43.140Z,1006.37
2018-11-12T05:09:43.125Z,1006.37
2018-11-12T05:10:43.114Z,1006.36
2018-11-12T05:11:43.097Z,1006.34
2018-11-12T05:12:43.071Z,1006.35
2018-11-12T05:13:43.055Z,1006.37
2018-11-12T05:14:43.036Z,1006.39
2018-11-12T05:15:43.020Z,1006.36
2018-11-12T05:16:43.155Z,1006.29
2018-11-12T05:17:43.008Z,1006.29
2018-11-12T05:18:42.975Z,1006.26
2018-11-12T05:19:42.951Z,1006.22
2018-11-12T05:20:42.939Z,1006.22
2018-11-12T05:21:42.918Z,1006.30
2018-11-12T05:22:42.902Z,1006.27
2018-11-12T05:23:42.884Z,1006.26
2018-11-12T05:24:42.866Z,1006.26
2018-11-12T05:25:42.853Z,1006.29
2018-11-12T05:26:42.831Z,1006.28
2018-11-12T05:27:42.819Z,1006.29
2018-11-12T05:28:42.798Z,1006.27
2018-11-12T05:29:42.787Z,1006.21
2018-11-12T05:30:42.765Z,1006.15
2018-11-12T05:31:42.745Z,1006.10
2018-11-12T05:32:42.735Z,1006.07
2018-11-12T05:33:42.714Z,1006.08
2018-11-12T05:34:42.698Z,1006.09
2018-11-12T05:35:42.676Z,1006.11
2018-11-12T05:36:42.657Z,1006.10
2018-11-12T05:37:42.713Z,1006.17
2018-11-12T05:38:42.625Z,1006.22
2018-11-12T05:39:42.610Z,1006.28
2018-11-12T05:40:42.591Z,1006.31
2018-11-12T05:41:42.576Z,1006.37
2018-11-12T05:42:42.551Z,1006.34
2018-11-12T05:43:42.538Z,1006.36
2018-11-12T05:44:42.546Z,1006.37
2018-11-12T05:45:42.512Z,1006.36
2018-11-12T05:46:42.496Z,1006.34
2018-11-12T05:47:42.465Z,1006.39
2018-11-12T05:48:42.446Z,1006.39
2018-11-12T05:49:42.435Z,1006.37
2018-11-12T05:50:42.434Z,1006.39
2018-11-12T05:51:42.535Z,1006.37
2018-11-12T05:52:42.379Z,1006.31
2018-11-12T05:53:42.362Z,1006.26
2018-11-12T05:54:42.344Z,1006.22
2018-11-12T05:55:42.326Z,1006.23
2018-11-12T05:56:42.317Z,1006.21
2018-11-12T05:57:42.291Z,1006.22
2018-11-12T05:58:42.274Z,1006.17
2018-11-12T05:59:42.258Z,1006.11
2018-11-12T06:00:42.239Z,1006.09
2018-11-12T06:01:42.220Z,1006.10
2018-11-12T06:02:42.208Z,1006.11
2018-11-12T06:03:42.187Z,1006.16
2018-11-12T06:04:42.210Z,1006.24
2018-11-12T06:05:42.149Z,1006.31
2018-11-12T06:06:42.131Z,1006.35
2018-11-12T06:07:42.112Z,1006.33
2018-11-12T06:08:42.099Z,1006.31
2018-11-12T06:09:42.079Z,1006.36
2018-11-12T06:10:42.060Z,1006.36
2018-11-12T06:11:42.044Z,1006.39
2018-11-12T06:12:42.033Z,1006.38
2018-11-12T06:13:42.009Z,1006.35
2018-11-12T06:14:41.995Z,1006.37
2018-11-12T06:15:41.971Z,1006.39
2018-11-12T06:16:41.954Z,1006.33
2018-11-12T06:17:41.941Z,1006.27
2018-11-12T06:18:41.921Z,1006.12
2018-11-12T06:19:41.900Z,1006.13
2018-11-12T06:20:41.884Z,1006.11
2018-11-12T06:21:41.872Z,1006.09
2018-11-12T06:22:41.952Z,1006.09
2018-11-12T06:23:41.830Z,1006.08
2018-11-12T06:24:41.813Z,1006.08
2018-11-12T06:25:41.796Z,1006.05
2018-11-12T06:26:41.783Z,1006.02
2018-11-12T06:27:41.761Z,1006.05
2018-11-12T06:28:41.744Z,1006.07
2018-11-12T06:29:41.726Z,1006.07
2018-11-12T06:30:41.712Z,1006.04
2018-11-12T06:31:41.699Z,1006.01
2018-11-12T06:32:41.703Z,1006.01
2018-11-12T06:33:41.654Z,1006.03
2018-11-12T06:34:41.646Z,1006.08
2018-11-12T06:35:41.616Z,1006.11
2018-11-12T06:36:41.706Z,1006.17
2018-11-12T06:37:41.593Z,1006.20
2018-11-12T06:38:41.572Z,1006.24
2018-11-12T06:39:41.557Z,1006.25
2018-11-12T06:40:41.531Z,1006.30
2018-11-12T06:41:41.516Z,1006.32
2018-11-12T06:42:41.642Z,1006.33
2018-11-12T06:43:41.478Z,1006.30
2018-11-12T06:44:41.463Z,1006.29
2018-11-12T06:45:41.443Z,1006.30
2018-11-12T06:46:41.425Z,1006.29
2018-11-12T06:47:41.407Z,1006.26
2018-11-12T06:48:41.388Z,1006.23
2018-11-12T06:49:41.372Z,1006.24
2018-11-12T06:50:41.355Z,1006.23
2018-11-12T06:51:41.343Z,1006.26
2018-11-12T06:52:41.372Z,1006.27
2018-11-12T06:53:41.311Z,1006.26
2018-11-12T06:54:41.290Z,1006.23
2018-11-12T06:55:41.263Z,1006.26
2018-11-12T06:56:41.247Z,1006.31
2018-11-12T06:57:41.232Z,1006.36
2018-11-12T06:58:41.217Z,1006.41
2018-11-12T06:59:41.193Z,1006.37
2018-11-12T07:00:41.193Z,1006.41
2018-11-12T07:01:41.156Z,1006.40
2018-11-12T07:02:41.141Z,1006.38
2018-11-12T07:03:41.121Z,1006.41
2018-11-12T07:04:41.107Z,1006.44
2018-11-12T07:05:41.091Z,1006.52
2018-11-12T07:06:41.119Z,1006.59
2018-11-12T07:07:41.051Z,1006.63
2018-11-12T07:08:41.036Z,1006.61
2018-11-12T07:09:41.017Z,1006.50
2018-11-12T07:10:41.005Z,1006.38
2018-11-12T07:11:40.983Z,1006.35
2018-11-12T07:12:40.966Z,1006.38
2018-11-12T07:13:40.946Z,1006.49
2018-11-12T07:14:40.940Z,1006.54
2018-11-12T07:15:40.918Z,1006.55
2018-11-12T07:16:40.894Z,1006.54
2018-11-12T07:17:40.876Z,1006.49
2018-11-12T07:18:40.911Z,1006.42
2018-11-12T07:19:40.842Z,1006.42
2018-11-12T07:20:40.825Z,1006.45
2018-11-12T07:21:40.806Z,1006.48
2018-11-12T07:22:40.792Z,1006.49
2018-11-12T07:23:40.771Z,1006.50
2018-11-12T07:24:40.754Z,1006.45
2018-11-12T07:25:40.735Z,1006.47
2018-11-12T07:26:40.719Z,1006.44
2018-11-12T07:27:40.700Z,1006.50
2018-11-12T07:28:40.690Z,1006.51
2018-11-12T07:29:40.666Z,1006.50
2018-11-12T07:30:40.752Z,1006.57
2018-11-12T07:31:40.631Z,1006.55
2018-11-12T07:32:40.614Z,1006.57
2018-11-12T07:33:40.597Z,1006.56
2018-11-12T07:34:40.580Z,1006.54
2018-11-12T07:35:40.567Z,1006.58
2018-11-12T07:36:40.547Z,1006.58
2018-11-12T07:37:40.531Z,1006.60
2018-11-12T07:38:40.513Z,1006.64
2018-11-12T07:39:40.493Z,1006.63
2018-11-12T07:40:40.475Z,1006.57
2018-11-12T07:41:40.460Z,1006.55
2018-11-12T07:42:40.443Z,1006.47
2018-11-12T07:43:40.422Z,1006.49
2018-11-12T07:44:40.407Z,1006.44
2018-11-12T07:45:40.389Z,1006.45
2018-11-12T07:46:40.373Z,1006.45
2018-11-12T07:47:40.359Z,1006.40
2018-11-12T07:48:40.389Z,1006.40
2018-11-12T07:49:40.321Z,1006.42
2018-11-12T07:50:40.310Z,1006.41
2018-11-12T07:51:40.285Z,1006.43
2018-11-12T07:52:40.272Z,1006.36
2018-11-12T07:53:40.258Z,1006.36
2018-11-12T07:54:40.235Z,1006.34
2018-11-12T07:55:40.215Z,1006.39
2018-11-12T07:56:40.200Z,1006.41
2018-11-12T07:57:40.182Z,1006.34
2018-11-12T07:58:40.162Z,1006.27
2018-11-12T07:59:40.143Z,1006.25
2018-11-12T08:00:40.128Z,1006.21
2018-11-12T08:01:40.110Z,1006.16
2018-11-12T08:02:40.107Z,1006.15
2018-11-12T08:03:40.151Z,1006.13
2018-11-12T08:04:40.063Z,1006.11
2018-11-12T08:05:40.044Z,1006.12
2018-11-12T08:06:40.025Z,1006.11
2018-11-12T08:07:40.008Z,1006.10
2018-11-12T08:08:39.996Z,1006.13
2018-11-12T08:09:40.131Z,1006.10
2018-11-12T08:10:39.958Z,1006.08
2018-11-12T08:11:39.961Z,1006.07
2018-11-12T08:12:39.922Z,1006.07
2018-11-12T08:13:39.907Z,1006.02
2018-11-12T08:14:39.995Z,1005.95
2018-11-12T08:15:39.874Z,1006.02
2018-11-12T08:16:39.853Z,1006.00
2018-11-12T08:17:39.986Z,1005.98
2018-11-12T08:18:39.909Z,1005.98
2018-11-12T08:19:39.802Z,1005.94
2018-11-12T08:20:39.787Z,1005.91
2018-11-12T08:21:39.825Z,1005.89
2018-11-12T08:22:39.753Z,1005.92
2018-11-12T08:23:39.730Z,1005.94
2018-11-12T08:24:39.819Z,1005.91
2018-11-12T08:25:39.699Z,1005.89
2018-11-12T08:26:39.682Z,1005.86
2018-11-12T08:27:39.664Z,1005.85
2018-11-12T08:28:39.648Z,1005.87
2018-11-12T08:29:39.651Z,1005.88
2018-11-12T08:30:39.614Z,1005.91
2018-11-12T08:31:39.599Z,1005.95
2018-11-12T08:32:39.581Z,1005.94
2018-11-12T08:33:39.563Z,1005.95
2018-11-12T08:34:39.547Z,1005.96
2018-11-12T08:35:39.528Z,1006.02
2018-11-12T08:36:39.653Z,1006.05
2018-11-12T08:37:39.499Z,1006.05
2018-11-12T08:38:39.482Z,1006.00
2018-11-12T08:39:39.652Z,1005.98
2018-11-12T08:40:39.541Z,1006.01
2018-11-12T08:41:39.427Z,1006.03
2018-11-12T08:42:39.409Z,1006.01
2018-11-12T08:43:39.393Z,1005.95
2018-11-12T08:44:39.375Z,1005.95
2018-11-12T08:45:39.366Z,1005.93
2018-11-12T08:46:39.343Z,1005.93
2018-11-12T08:47:39.331Z,1005.87
2018-11-12T08:48:39.315Z,1005.93
2018-11-12T08:49:39.326Z,1005.93
2018-11-12T08:50:39.279Z,1005.90
2018-11-12T08:51:39.256Z,1005.84
2018-11-12T08:52:39.241Z,1005.84
2018-11-12T08:53:39.225Z,1005.80
2018-11-12T08:54:39.324Z,1005.83
2018-11-12T08:55:39.255Z,1005.85
2018-11-12T08:56:39.175Z,1005.90
2018-11-12T08:57:39.155Z,1005.88
2018-11-12T08:58:39.138Z,1005.84
2018-11-12T08:59:39.188Z,1005.78
2018-11-12T09:00:39.116Z,1005.74
2018-11-12T09:01:39.088Z,1005.77
2018-11-12T09:02:39.071Z,1005.72
2018-11-12T09:03:39.055Z,1005.72
2018-11-12T09:04:39.039Z,1005.72
2018-11-12T09:05:39.103Z,1005.76
2018-11-12T09:06:39.007Z,1005.76
2018-11-12T09:07:38.989Z,1005.65
2018-11-12T09:08:38.967Z,1005.70
2018-11-12T09:09:38.951Z,1005.70
2018-11-12T09:10:38.934Z,1005.70
2018-11-12T09:11:38.919Z,1005.64
2018-11-12T09:12:38.901Z,1005.62
2018-11-12T09:13:38.891Z,1005.54
2018-11-12T09:14:38.868Z,1005.55
2018-11-12T09:15:38.914Z,1005.63
2018-11-12T09:16:38.845Z,1005.73
2018-11-12T09:17:38.817Z,1005.75
2018-11-12T09:18:38.804Z,1005.60
2018-11-12T09:19:38.788Z,1005.42
2018-11-12T09:20:38.769Z,1005.36
2018-11-12T09:21:38.749Z,1005.43
2018-11-12T09:22:38.740Z,1005.57
2018-11-12T09:23:38.712Z,1005.64
2018-11-12T09:24:38.706Z,1005.63
2018-11-12T09:25:38.681Z,1005.67
2018-11-12T09:26:38.665Z,1005.65
2018-11-12T09:27:38.646Z,1005.65
2018-11-12T09:28:38.631Z,1005.62
2018-11-12T09:29:38.726Z,1005.62
2018-11-12T09:30:38.658Z,1005.67
2018-11-12T09:31:38.580Z,1005.72
2018-11-12T09:32:38.976Z,1005.70
2018-11-12T09:33:38.568Z,1005.70
2018-11-12T09:34:38.534Z,1005.72
2018-11-12T09:35:38.511Z,1005.71
2018-11-12T09:36:38.540Z,1005.72
2018-11-12T09:37:38.496Z,1005.71
2018-11-12T09:38:38.528Z,1005.71
2018-11-12T09:39:38.451Z,1005.73
2018-11-12T09:40:38.434Z,1005.71
2018-11-12T09:41:38.411Z,1005.60
2018-11-12T09:42:38.394Z,1005.44
2018-11-12T09:43:38.375Z,1005.41
2018-11-12T09:44:38.377Z,1005.44
2018-11-12T09:45:38.348Z,1005.42
2018-11-12T09:46:38.326Z,1005.46
2018-11-12T09:47:38.358Z,1005.49
2018-11-12T09:48:38.296Z,1005.46
2018-11-12T09:49:38.276Z,1005.44
2018-11-12T09:50:38.268Z,1005.48
2018-11-12T09:51:38.242Z,1005.55
2018-11-12T09:52:38.224Z,1005.49
2018-11-12T09:53:38.311Z,1005.43
2018-11-12T09:54:38.297Z,1005.45
2018-11-12T09:55:38.212Z,1005.44
2018-11-12T09:56:38.164Z,1005.51
2018-11-12T09:57:38.148Z,1005.52
2018-11-12T09:58:38.135Z,1005.51
2018-11-12T09:59:38.114Z,1005.50
2018-11-12T10:00:38.340Z,1005.47
2018-11-12T10:01:38.568Z,1005.44
2018-11-12T10:02:38.756Z,1005.40
2018-11-12T10:03:39.044Z,1005.38
2018-11-12T10:04:39.469Z,1005.40
2018-11-12T10:05:39.527Z,1005.44
2018-11-12T10:06:39.359Z,1005.48
2018-11-12T10:07:39.967Z,1005.45
2018-11-12T10:08:39.521Z,1005.38
2018-11-12T10:09:39.876Z,1005.34
2018-11-12T10:10:40.318Z,1005.28
2018-11-12T10:11:40.307Z,1005.31
2018-11-12T10:12:40.353Z,1005.30
2018-11-12T10:13:40.036Z,1005.33
2018-11-12T10:14:40.788Z,1005.30
2018-11-12T10:15:41.215Z,1005.26
2018-11-12T10:16:40.264Z,1005.22
2018-11-12T10:17:40.382Z,1005.18
2018-11-12T10:18:37.797Z,1005.15
2018-11-12T10:19:37.786Z,1005.18
2018-11-12T10:20:37.772Z,1005.23
2018-11-12T10:21:37.745Z,1005.25
2018-11-12T10:22:37.729Z,1005.28
2018-11-12T10:23:37.716Z,1005.27
2018-11-12T10:24:37.695Z,1005.33
2018-11-12T10:25:37.680Z,1005.41
2018-11-12T10:26:37.663Z,1005.29
2018-11-12T10:27:37.651Z,1005.29
2018-11-12T10:28:37.629Z,1005.35
2018-11-12T10:29:37.614Z,1005.37
2018-11-12T10:30:37.604Z,1005.37
2018-11-12T10:31:37.581Z,1005.46
2018-11-12T10:32:37.565Z,1005.44
2018-11-12T10:33:37.557Z,1005.40
2018-11-12T10:34:37.536Z,1005.44
2018-11-12T10:35:37.515Z,1005.43
2018-11-12T10:36:37.499Z,1005.35
2018-11-12T10:37:37.483Z,1005.31
2018-11-12T10:38:37.468Z,1005.26
2018-11-12T10:39:37.511Z,1005.24
2018-11-12T10:40:37.438Z,1005.24
2018-11-12T10:41:37.422Z,1005.29
2018-11-12T10:42:37.420Z,1005.33
2018-11-12T10:43:37.387Z,1005.32
2018-11-12T10:44:37.369Z,1005.34
2018-11-12T10:45:37.351Z,1005.37
2018-11-12T10:46:37.338Z,1005.37
2018-11-12T10:47:37.341Z,1005.28
2018-11-12T10:48:37.301Z,1005.24
2018-11-12T10:49:37.286Z,1005.28
2018-11-12T10:50:37.271Z,1005.21
2018-11-12T10:51:37.258Z,1005.16
2018-11-12T10:52:37.243Z,1005.18
2018-11-12T10:53:37.242Z,1005.12
2018-11-12T10:54:37.348Z,1005.11
2018-11-12T10:55:37.335Z,1005.16
2018-11-12T10:56:37.174Z,1005.20
2018-11-12T10:57:37.157Z,1005.23
2018-11-12T10:58:37.236Z,1005.25
2018-11-12T10:59:37.164Z,1005.26
2018-11-12T11:00:37.109Z,1005.28
2018-11-12T11:01:37.103Z,1005.31
2018-11-12T11:02:37.085Z,1005.35
2018-11-12T11:03:37.072Z,1005.36
2018-11-12T11:04:37.044Z,1005.38
2018-11-12T11:05:37.032Z,1005.38
2018-11-12T11:06:37.016Z,1005.40
2018-11-12T11:07:37.002Z,1005.39
2018-11-12T11:08:36.983Z,1005.34
2018-11-12T11:09:36.966Z,1005.33
2018-11-12T11:10:36.950Z,1005.28
2018-11-12T11:11:36.934Z,1005.27
2018-11-12T11:12:36.918Z,1005.30
2018-11-12T11:13:36.924Z,1005.28
2018-11-12T11:14:36.895Z,1005.19
2018-11-12T11:15:36.954Z,1005.11
2018-11-12T11:16:36.854Z,1005.15
2018-11-12T11:17:36.839Z,1005.20
2018-11-12T11:18:36.824Z,1005.21
2018-11-12T11:19:36.810Z,1005.29
2018-11-12T11:20:36.794Z,1005.28
2018-11-12T11:21:36.775Z,1005.21
2018-11-12T11:22:36.766Z,1005.24
2018-11-12T11:23:36.739Z,1005.24
2018-11-12T11:24:36.726Z,1005.25
2018-11-12T11:25:36.714Z,1005.28
2018-11-12T11:26:36.725Z,1005.35
2018-11-12T11:27:36.678Z,1005.39
2018-11-12T11:28:36.666Z,1005.41
2018-11-12T11:29:36.648Z,1005.39
2018-11-12T11:30:36.631Z,1005.41
2018-11-12T11:31:36.612Z,1005.41
2018-11-12T11:32:36.600Z,1005.43
2018-11-12T11:33:36.581Z,1005.42
2018-11-12T11:34:36.573Z,1005.43
2018-11-12T11:35:36.547Z,1005.47
2018-11-12T11:36:36.536Z,1005.47
2018-11-12T11:37:36.521Z,1005.46
2018-11-12T11:38:36.500Z,1005.44
2018-11-12T11:39:36.486Z,1005.46
2018-11-12T11:40:36.508Z,1005.50
2018-11-12T11:41:36.456Z,1005.53
2018-11-12T11:42:36.439Z,1005.52
2018-11-12T11:43:36.424Z,1005.55
2018-11-12T11:44:36.407Z,1005.52
2018-11-12T11:45:36.394Z,1005.54
2018-11-12T11:46:36.375Z,1005.56
2018-11-12T11:47:36.438Z,1005.47
2018-11-12T11:48:36.372Z,1005.47
2018-11-12T11:49:36.327Z,1005.50
2018-11-12T11:50:36.381Z,1005.44
2018-11-12T11:51:36.319Z,1005.43
2018-11-12T11:52:36.295Z,1005.42
2018-11-12T11:53:36.379Z,1005.40
2018-11-12T11:54:36.247Z,1005.44
2018-11-12T11:55:36.230Z,1005.45
2018-11-12T11:56:36.265Z,1005.45
2018-11-12T11:57:36.344Z,1005.47
2018-11-12T11:58:36.187Z,1005.50
2018-11-12T11:59:36.170Z,1005.47
2018-11-12T12:00:36.214Z,1005.45
2018-11-12T12:01:36.144Z,1005.45
2018-11-12T12:02:36.124Z,1005.46
2018-11-12T12:03:36.109Z,1005.47
2018-11-12T12:04:36.090Z,1005.50
2018-11-12T12:05:36.084Z,1005.48